Flight Track Log - Related Links

Times and Time Zones

All times are in EDT time to prevent confusion due to time zone crossing. See the SWA407 flight status page for this flight to view local times or setup timezone preferences in your user account.

Time Position Orientation Groundspeed Altitude Reporting Facility
EDT Latitude Longitude Course Direction KTS MPH feet Rate Location/Type
Fri 07:36:37 PM 38.7333 -90.3000 49° Northeast 183 211 2,300  Level Gateway (St. Louis) TRACON
Fri 07:37:37 PM 38.7667 -90.2500 49° Northeast 235 270 4,400 1,950 Climbing Gateway (St. Louis) TRACON
Fri 07:38:37 PM 38.8236 -90.2186 23° Northeast 262 302 6,200 3,025 Climbing Kansas City Center
Fri 07:39:36 PM 38.8989 -90.1869 18° North 281 323 10,400 3,223 Climbing Kansas City Center
Fri 07:40:38 PM 38.9950 -90.1469 18° North 323 372 12,700 2,585 Climbing Kansas City Center
Fri 07:41:39 PM 39.0800 -90.1092 19° North 368 423 15,700 2,683 Climbing Kansas City Center
Fri 07:42:41 PM 39.1817 -90.0628 19° North 383 441 18,200 2,900 Climbing Kansas City Center
Fri 07:43:39 PM 39.3028 -90.0097 19° North 389 448 21,500 2,727 Climbing Kansas City Center
Fri 07:44:42 PM 39.4075 -89.9536 22° Northeast 400 460 23,700 2,081 Climbing Kansas City Center
Fri 07:45:43 PM 39.5114 -89.8853 27° Northeast 416 479 25,800 1,770 Climbing Kansas City Center
Fri 07:46:44 PM 39.6192 -89.8164 26° Northeast 428 493 27,300 1,736 Climbing Kansas City Center
Fri 07:47:44 PM 39.7325 -89.7433 26° Northeast 442 509 29,300 1,820 Climbing Kansas City Center
Fri 07:48:46 PM 39.8342 -89.6581 33° Northeast 439 505 31,000 829 Climbing Kansas City Center
Fri 07:49:47 PM 39.9228 -89.5453 44° Northeast 446 513 31,000  Level Kansas City Center
Fri 07:50:48 PM 40.0117 -89.4319 44° Northeast 446 513 31,000 98 Level Kansas City Center
Fri 07:51:49 PM 40.1003 -89.3178 45° Northeast 447 514 31,200 590 Climbing Kansas City Center
Fri 07:52:50 PM 40.1883 -89.2056 44° Northeast 447 514 32,200 885 Climbing Kansas City Center
Fri 07:53:51 PM 40.2756 -89.0942 44° Northeast 447 514 33,000 381 Climbing Kansas City Center
Fri 07:54:56 PM 40.3844 -88.9756 40° Northeast 437 503 33,000  Level Chicago Center
Fri 07:55:57 PM 40.4781 -88.8797 38° Northeast 432 497 33,000  Level Chicago Center
Fri 07:56:59 PM 40.5747 -88.7578 44° Northeast 430 495 33,000  Level Chicago Center
Fri 07:58:00 PM 40.6583 -88.6458 45° Northeast 429 494 33,000  Level Chicago Center
Fri 07:59:01 PM 40.7431 -88.5339 45° Northeast 430 495 33,000  Level Chicago Center
Fri 08:00:03 PM 40.8289 -88.4203 45° Northeast 433 498 33,000  Level Chicago Center
Fri 08:01:04 PM 40.9133 -88.3053 46° Northeast 435 501 33,000  Level Chicago Center
Fri 08:02:06 PM 40.9989 -88.1903 45° Northeast 439 505 33,000  Level Chicago Center
Fri 08:03:07 PM 41.0828 -88.0753 46° Northeast 439 505 33,000  Level Chicago Center
Fri 08:04:08 PM 41.1844 -87.9372 46° Northeast 440 506 33,000 -443 Level Chicago Center
Fri 08:05:09 PM 41.2675 -87.8228 46° Northeast 439 505 32,100 -934 Descending Chicago Center
Fri 08:06:10 PM 41.3506 -87.7081 46° Northeast 438 504 31,100 -984 Descending Chicago Center
Fri 08:07:11 PM 41.4333 -87.5961 45° Northeast 435 501 30,100 -934 Descending Chicago Center
Fri 08:08:12 PM 41.5178 -87.4792 46° Northeast 435 501 29,200 -885 Descending Chicago Center
Fri 08:09:13 PM 41.6028 -87.3614 46° Northeast 441 507 28,300 -934 Descending Chicago Center
Fri 08:10:14 PM 41.6869 -87.2397 47° Northeast 444 511 27,300 -934 Descending Chicago Center
Fri 08:11:15 PM 41.7556 -87.0989 57° Northeast 451 519 26,400 -1,033 Descending Chicago Center
Fri 08:12:16 PM 41.8436 -86.9319 55° Northeast 454 522 25,200 -1,707 Descending Chicago Center
Fri 08:13:18 PM 41.9119 -86.7975 56° Northeast 445 512 22,900 -2,049 Descending Chicago Center
Fri 08:14:19 PM 41.9728 -86.6806 55° Northeast 423 487 21,000 -1,377 Descending Chicago Center
Fri 08:15:20 PM 42.0514 -86.5794 44° Northeast 392 451 20,100 -934 Descending Chicago Center
Fri 08:16:21 PM 42.1333 -86.4775 43° Northeast 398 458 19,100 -1,623 Descending Chicago Center
Fri 08:17:22 PM 42.2131 -86.3772 43° Northeast 397 457 16,800 -2,656 Descending Chicago Center
Fri 08:18:23 PM 42.2997 -86.2678 43° Northeast 381 438 13,700 -2,705 Descending Chicago Center
Fri 08:19:24 PM 42.3731 -86.1747 43° Northeast 367 422 11,300 -1,377 Descending Chicago Center
Fri 08:20:25 PM 42.4375 -86.0928 43° Northeast 331 381 10,900 -148 Descending Chicago Center
Fri 08:21:26 PM 42.4889 -86.0169 47° Northeast 288 331 11,000 -443 Climbing Chicago Center
Fri 08:22:27 PM 42.5364 -85.9311 53° Northeast 286 329 10,000 -1,475 Descending Chicago Center
Fri 08:23:28 PM 42.5850 -85.8464 52° Northeast 286 329 8,000 -1,672 Descending Chicago Center
Fri 08:24:29 PM 42.6317 -85.7678 51° Northeast 278 320 6,600 -1,279 Descending Chicago Center
Fri 08:25:30 PM 42.6747 -85.6931 52° Northeast 261 300 5,400 -1,091 Descending Chicago Center
Fri 08:26:30 PM 42.7300 -85.6217 43° Northeast 235 270 4,400 -992 Descending Chicago Center
Fri 08:27:31 PM 42.7722 -85.5672 43° Northeast 217 250 3,400 -1,082 Descending Chicago Center
Fri 08:28:32 PM 42.8072 -85.5192 45° Northeast 193 222 2,200 -1,033 Descending Chicago Center
Fri 08:29:33 PM 42.8431 -85.5075 13° North 159 183 1,300 -639 Descending Chicago Center
Fri 08:30:34 PM 42.8739 -85.5133 352° North 145 167 900 -393 Descending Chicago Center
Fri 08:32:00 PM 42.8667 -85.5167 48° Northeast  Level FlightAware Approximate

Login

Don't have an account? Register now (free) for customized features, flight alerts, and more!